createdAt,value
2016-02-12T00:00:56.802Z,6.33
2016-02-12T00:01:56.836Z,6.36
2016-02-12T00:02:56.839Z,6.36
2016-02-12T00:03:56.857Z,6.38
2016-02-12T00:04:56.891Z,6.33
2016-02-12T00:05:56.879Z,6.3
2016-02-12T00:06:56.912Z,6.31
2016-02-12T00:07:56.915Z,6.33
2016-02-12T00:08:56.935Z,6.33
2016-02-12T00:09:56.952Z,6.35
2016-02-12T00:10:56.962Z,6.33
2016-02-12T00:11:56.998Z,6.3
2016-02-12T00:12:57.002Z,6.31
2016-02-12T00:13:57.004Z,6.27
2016-02-12T00:14:57.039Z,6.33
2016-02-12T00:15:57.041Z,6.38
2016-02-12T00:16:57.076Z,6.28
2016-02-12T00:17:57.078Z,6.31
2016-02-12T00:18:57.081Z,6.28
2016-02-12T00:19:57.116Z,6.33
2016-02-12T00:20:57.118Z,6.35
2016-02-12T00:21:57.152Z,6.3
2016-02-12T00:22:57.154Z,6.31
2016-02-12T00:23:57.163Z,6.3
2016-02-12T00:24:57.170Z,6.28
2016-02-12T00:25:57.175Z,6.26
2016-02-12T00:26:57.182Z,6.27
2016-02-12T00:27:57.204Z,6.31
2016-02-12T00:28:57.182Z,6.3
2016-02-12T00:29:57.212Z,6.3
2016-02-12T00:30:57.210Z,6.36
2016-02-12T00:31:57.224Z,6.28
2016-02-12T00:32:57.238Z,6.28
2016-02-12T00:33:57.239Z,6.27
2016-02-12T00:34:57.257Z,6.33
2016-02-12T00:35:57.273Z,6.33
2016-02-12T00:36:57.294Z,6.33
2016-02-12T00:37:57.295Z,6.31
2016-02-12T00:38:57.312Z,6.31
2016-02-12T00:39:57.329Z,6.33
2016-02-12T00:40:57.363Z,6.31
2016-02-12T00:41:57.364Z,6.31
2016-02-12T00:42:57.380Z,6.26
2016-02-12T00:43:57.382Z,6.28
2016-02-12T00:44:57.432Z,6.31
2016-02-12T00:45:57.419Z,6.31
2016-02-12T00:46:57.437Z,6.27
2016-02-12T00:47:57.470Z,6.33
2016-02-12T00:48:57.473Z,6.3
2016-02-12T00:49:57.492Z,6.26
2016-02-12T00:50:57.510Z,6.26
2016-02-12T00:51:57.528Z,6.26
2016-02-12T00:52:57.531Z,6.28
2016-02-12T00:53:57.550Z,6.27
2016-02-12T00:54:57.584Z,6.3
2016-02-12T00:55:57.571Z,6.27
2016-02-12T00:56:57.605Z,6.3
2016-02-12T00:57:57.607Z,6.19
2016-02-12T00:58:57.658Z,6.27
2016-02-12T00:59:57.645Z,6.35
2016-02-12T01:00:57.695Z,6.31
2016-02-12T01:01:57.682Z,6.35
2016-02-12T01:02:57.708Z,6.28
2016-02-12T01:03:57.711Z,6.31
2016-02-12T01:04:57.713Z,6.19
2016-02-12T01:05:57.748Z,6.27
2016-02-12T01:06:57.751Z,6.28
2016-02-12T01:07:57.768Z,6.26
2016-02-12T01:08:57.787Z,6.28
2016-02-12T01:09:58.009Z,6.28
2016-02-12T01:10:57.824Z,6.22
2016-02-12T01:11:57.845Z,6.27
2016-02-12T01:12:57.851Z,6.26
2016-02-12T01:13:57.900Z,6.3
2016-02-12T01:14:57.872Z,6.22
2016-02-12T01:15:57.905Z,6.28
2016-02-12T01:16:57.908Z,6.31
2016-02-12T01:17:57.942Z,6.26
2016-02-12T01:18:57.945Z,6.27
2016-02-12T01:19:57.964Z,6.35
2016-02-12T01:21:01.138Z,6.33
2016-02-12T01:21:58.001Z,6.26
2016-02-12T01:22:57.847Z,6.36
2016-02-12T01:23:58.022Z,6.35
2016-02-12T01:24:57.305Z,6.3
2016-02-12T01:25:58.043Z,6.27
2016-02-12T01:26:58.076Z,6.28
2016-02-12T01:27:58.095Z,6.24
2016-02-12T01:28:58.098Z,6.31
2016-02-12T01:29:58.132Z,6.24
2016-02-12T01:30:58.134Z,6.26
2016-02-12T01:31:58.169Z,6.33
2016-02-12T01:32:58.172Z,6.3
2016-02-12T01:33:58.174Z,6.35
2016-02-12T01:34:58.193Z,6.28
2016-02-12T01:35:58.228Z,6.24
2016-02-12T01:36:58.246Z,6.3
2016-02-12T01:37:58.233Z,6.3
2016-02-12T01:38:58.267Z,6.31
2016-02-12T01:39:58.289Z,6.24
2016-02-12T01:40:58.291Z,6.24
2016-02-12T01:41:58.309Z,6.27
2016-02-12T01:42:58.159Z,6.28
2016-02-12T01:43:58.333Z,6.27
2016-02-12T01:44:58.352Z,6.27
2016-02-12T01:45:58.370Z,6.27
2016-02-12T01:46:58.405Z,6.33
2016-02-12T01:47:58.407Z,6.3
2016-02-12T01:48:58.426Z,6.35
2016-02-12T01:49:58.444Z,6.3
2016-02-12T01:50:58.447Z,6.36
2016-02-12T01:51:58.481Z,6.3
2016-02-12T01:52:58.483Z,6.31
2016-02-12T01:53:58.517Z,6.27
2016-02-12T01:54:58.520Z,6.27
2016-02-12T01:55:58.554Z,6.3
2016-02-12T01:56:58.573Z,6.31
2016-02-12T01:57:58.576Z,6.33
2016-02-12T01:58:58.578Z,6.36
2016-02-12T01:59:58.628Z,6.36
2016-02-12T02:00:58.600Z,6.3
2016-02-12T02:01:58.633Z,6.33
2016-02-12T02:02:58.652Z,6.3
2016-02-12T02:03:58.654Z,6.27
2016-02-12T02:04:58.688Z,6.3
2016-02-12T02:05:58.692Z,6.33
2016-02-12T02:06:58.710Z,6.3
2016-02-12T02:07:58.713Z,6.36
2016-02-12T02:08:58.762Z,6.28
2016-02-12T02:09:58.765Z,6.3
2016-02-12T02:10:58.753Z,6.26
2016-02-12T02:11:58.802Z,6.3
2016-02-12T02:12:58.806Z,6.27
2016-02-12T02:13:58.825Z,6.3
2016-02-12T02:14:58.828Z,6.3
2016-02-12T02:15:58.846Z,6.33
2016-02-12T02:16:58.864Z,6.28
2016-02-12T02:17:58.882Z,6.31
2016-02-12T02:18:58.885Z,6.31
2016-02-12T02:19:58.904Z,6.27
2016-02-12T02:20:58.922Z,6.3
2016-02-12T02:21:58.924Z,6.31
2016-02-12T02:22:58.974Z,6.35
2016-02-12T02:23:58.837Z,6.27
2016-02-12T02:24:58.979Z,6.3
2016-02-12T02:25:59.013Z,6.27
2016-02-12T02:26:59.032Z,6.26
2016-02-12T02:27:59.034Z,6.31
2016-02-12T02:28:59.053Z,6.22
2016-02-12T02:29:59.056Z,6.33
2016-02-12T02:30:59.074Z,6.24
2016-02-12T02:31:59.092Z,6.28
2016-02-12T02:32:59.111Z,6.28
2016-02-12T02:33:59.129Z,6.28
2016-02-12T02:34:59.147Z,6.26
2016-02-12T02:35:59.150Z,6.2
2016-02-12T02:36:59.184Z,6.27
2016-02-12T02:37:59.186Z,6.28
2016-02-12T02:38:59.205Z,6.24
2016-02-12T02:39:59.209Z,6.14
2016-02-12T02:40:59.226Z,6.16
2016-02-12T02:41:59.261Z,6.24
2016-02-12T02:42:59.267Z,6.22
2016-02-12T02:43:59.285Z,6.19
2016-02-12T02:44:59.304Z,6.2
2016-02-12T02:45:59.307Z,6.24
2016-02-12T02:46:59.324Z,6.2
2016-02-12T02:47:59.343Z,6.24
2016-02-12T02:48:59.379Z,6.17
2016-02-12T02:49:59.382Z,6.11
2016-02-12T02:50:59.244Z,6.14
2016-02-12T02:51:59.404Z,6.16
2016-02-12T02:52:59.422Z,6.19
2016-02-12T02:53:59.456Z,6.12
2016-02-12T02:54:59.460Z,6.16
2016-02-12T02:55:59.462Z,6.11
2016-02-12T02:56:59.479Z,6.12
2016-02-12T02:57:59.513Z,6.17
2016-02-12T02:58:59.516Z,6.12
2016-02-12T02:59:59.536Z,6.11
2016-02-12T03:00:59.633Z,6.12
2016-02-12T03:01:59.573Z,6.16
2016-02-12T03:02:59.575Z,6.22
2016-02-12T03:03:59.610Z,6.16
2016-02-12T03:04:59.613Z,6.17
2016-02-12T03:05:59.631Z,6.24
2016-02-12T03:06:59.649Z,6.17
2016-02-12T03:07:59.652Z,6.14
2016-02-12T03:08:59.672Z,6.17
2016-02-12T03:09:59.690Z,6.09
2016-02-12T03:10:59.709Z,6.16
2016-02-12T03:11:59.732Z,6.2
2016-02-12T03:12:59.750Z,6.17
2016-02-12T03:13:59.753Z,6.12
2016-02-12T03:14:59.772Z,6.17
2016-02-12T03:15:59.790Z,6.24
2016-02-12T03:16:59.794Z,6.17
2016-02-12T03:17:59.813Z,6.09
2016-02-12T03:18:59.831Z,6.17
2016-02-12T03:19:59.849Z,6.22
2016-02-12T03:20:59.867Z,6.22
2016-02-12T03:21:59.870Z,6.22
2016-02-12T03:22:59.888Z,6.24
2016-02-12T03:23:59.907Z,6.17
2016-02-12T03:24:59.925Z,6.17
2016-02-12T03:25:59.943Z,6.16
2016-02-12T03:26:59.963Z,6.09
2016-02-12T03:27:59.965Z,6.12
2016-02-12T03:28:59.982Z,6.16
2016-02-12T03:30:00.001Z,6.16
2016-02-12T03:31:00.019Z,6.11
2016-02-12T03:32:00.037Z,6.09
2016-02-12T03:33:00.056Z,6.12
2016-02-12T03:34:00.059Z,6.12
2016-02-12T03:35:00.078Z,6.11
2016-02-12T03:36:00.096Z,6.16
2016-02-12T03:37:00.100Z,6.12
2016-02-12T03:38:00.119Z,6.16
2016-02-12T03:39:00.152Z,6.14
2016-02-12T03:40:00.155Z,6.16
2016-02-12T03:41:00.173Z,6.12
2016-02-12T03:42:00.175Z,6.07
2016-02-12T03:43:00.215Z,6.17
2016-02-12T03:44:00.217Z,6.11
2016-02-12T03:45:00.251Z,6.09
2016-02-12T03:46:00.253Z,6.11
2016-02-12T03:47:00.256Z,6.16
2016-02-12T03:48:00.273Z,6.11
2016-02-12T03:49:00.292Z,6.16
2016-02-12T03:50:00.310Z,6.05
2016-02-12T03:51:00.329Z,6.17
2016-02-12T03:52:00.347Z,6.14
2016-02-12T03:53:00.366Z,6.14
2016-02-12T03:54:00.384Z,6.07
2016-02-12T03:55:00.403Z,6.09
2016-02-12T03:56:00.406Z,6.02
2016-02-12T03:57:00.408Z,6.04
2016-02-12T03:58:00.442Z,6.09
2016-02-12T03:59:00.461Z,6.05
2016-02-12T04:00:00.478Z,6.01
2016-02-12T04:01:00.481Z,6.01
2016-02-12T04:02:00.499Z,6.05
2016-02-12T04:03:00.503Z,5.98
2016-02-12T04:04:00.537Z,5.98
2016-02-12T04:05:00.570Z,5.99
2016-02-12T04:06:00.636Z,6.02
2016-02-12T04:07:00.561Z,5.97
2016-02-12T04:08:00.578Z,5.94
2016-02-12T04:09:00.597Z,5.98
2016-02-12T04:10:00.616Z,5.99
2016-02-12T04:11:00.634Z,6.07
2016-02-12T04:12:00.658Z,6.05
2016-02-12T04:13:00.661Z,6.09
2016-02-12T04:14:00.678Z,5.98
2016-02-12T04:15:00.698Z,6.08
2016-02-12T04:16:00.716Z,6.02
2016-02-12T04:17:00.720Z,6.05
2016-02-12T04:18:00.737Z,6.04
2016-02-12T04:19:00.756Z,6.04
2016-02-12T04:20:00.776Z,6.05
2016-02-12T04:21:00.794Z,6.02
2016-02-12T04:22:00.797Z,5.97
2016-02-12T04:23:00.816Z,6.01
2016-02-12T04:24:00.833Z,5.93
2016-02-12T04:25:00.852Z,5.99
2016-02-12T04:26:00.871Z,5.9
2016-02-12T04:27:00.873Z,5.98
2016-02-12T04:28:00.891Z,6.07
2016-02-12T04:29:00.911Z,5.97
2016-02-12T04:30:00.946Z,5.97
2016-02-12T04:31:00.948Z,5.98
2016-02-12T04:32:00.950Z,5.99
2016-02-12T04:33:00.970Z,5.93
2016-02-12T04:34:00.987Z,5.99
2016-02-12T04:35:01.006Z,5.91
2016-02-12T04:36:01.040Z,6.04
2016-02-12T04:37:01.058Z,6.04
2016-02-12T04:38:01.062Z,5.9
2016-02-12T04:39:01.065Z,5.9
2016-02-12T04:40:01.085Z,5.86
2016-02-12T04:41:01.087Z,5.97
2016-02-12T04:42:01.122Z,5.93
2016-02-12T04:43:01.125Z,6.05
2016-02-12T04:44:01.159Z,5.9
2016-02-12T04:45:01.161Z,6.02
2016-02-12T04:46:01.181Z,5.98
2016-02-12T04:47:01.183Z,5.93
2016-02-12T04:48:01.202Z,5.94
2016-02-12T04:49:01.533Z,6.04
2016-02-12T04:50:01.255Z,5.94
2016-02-12T04:51:01.274Z,5.9
2016-02-12T04:52:01.277Z,5.97
2016-02-12T04:53:01.279Z,5.98
2016-02-12T04:54:01.297Z,6.02
2016-02-12T04:55:01.315Z,5.94
2016-02-12T04:56:01.334Z,5.93
2016-02-12T04:57:01.383Z,5.97
2016-02-12T04:58:01.385Z,5.98
2016-02-12T04:59:01.388Z,5.97
2016-02-12T05:00:01.391Z,5.94
2016-02-12T05:01:01.410Z,5.91
2016-02-12T05:02:01.413Z,5.97
2016-02-12T05:03:01.431Z,5.94
2016-02-12T05:04:01.465Z,5.91
2016-02-12T05:05:01.467Z,5.93
2016-02-12T05:06:01.487Z,6.07
2016-02-12T05:07:01.505Z,5.91
2016-02-12T05:08:01.507Z,5.91
2016-02-12T05:09:01.526Z,5.89
2016-02-12T05:10:01.544Z,5.9
2016-02-12T05:11:01.546Z,5.99
2016-02-12T05:12:01.571Z,5.93
2016-02-12T05:13:01.588Z,5.91
2016-02-12T05:14:01.607Z,5.91
2016-02-12T05:15:01.625Z,5.93
2016-02-12T05:16:01.643Z,5.99
2016-02-12T05:17:01.646Z,5.91
2016-02-12T05:18:01.665Z,5.9
2016-02-12T05:19:01.684Z,5.94
2016-02-12T05:20:01.701Z,5.89
2016-02-12T05:21:01.720Z,5.89
2016-02-12T05:22:01.739Z,5.93
2016-02-12T05:23:01.758Z,5.91
2016-02-12T05:24:01.761Z,5.9
2016-02-12T05:25:01.780Z,5.97
2016-02-12T05:26:01.782Z,5.99
2016-02-12T05:27:01.799Z,5.91
2016-02-12T05:28:01.819Z,5.89
2016-02-12T05:29:01.836Z,5.9
2016-02-12T05:30:01.855Z,5.91
2016-02-12T05:31:01.873Z,5.93
2016-02-12T05:32:01.876Z,5.9
2016-02-12T05:33:01.894Z,5.84
2016-02-12T05:34:01.913Z,5.84
2016-02-12T05:35:01.932Z,5.97
2016-02-12T05:36:01.949Z,5.9
2016-02-12T05:37:01.951Z,5.93
2016-02-12T05:38:02.002Z,5.89
2016-02-12T05:39:02.004Z,5.99
2016-02-12T05:40:02.023Z,5.9
2016-02-12T05:41:02.016Z,5.91
2016-02-12T05:42:02.049Z,5.86
2016-02-12T05:43:02.054Z,5.86
2016-02-12T05:44:02.072Z,5.98
2016-02-12T05:45:02.090Z,5.93
2016-02-12T05:46:02.093Z,5.89
2016-02-12T05:47:02.127Z,5.84
2016-02-12T05:48:02.130Z,5.97
2016-02-12T05:49:02.149Z,5.82
2016-02-12T05:50:02.151Z,5.89
2016-02-12T05:51:02.202Z,5.98
2016-02-12T05:52:02.189Z,5.87
2016-02-12T05:53:02.207Z,5.86
2016-02-12T05:54:02.240Z,5.84
2016-02-12T05:55:02.243Z,5.89
2016-02-12T05:56:02.231Z,5.9
2016-02-12T05:57:02.280Z,5.91
2016-02-12T05:58:02.301Z,5.97
2016-02-12T05:59:02.304Z,5.89
2016-02-12T06:00:02.306Z,5.9
2016-02-12T06:01:02.328Z,5.93
2016-02-12T06:02:02.346Z,5.94
2016-02-12T06:03:02.364Z,5.91
2016-02-12T06:04:02.367Z,5.93
2016-02-12T06:05:02.433Z,5.84
2016-02-12T06:06:02.404Z,5.91
2016-02-12T06:07:02.438Z,5.9
2016-02-12T06:08:02.456Z,5.82
2016-02-12T06:09:02.444Z,5.87
2016-02-12T06:10:02.477Z,5.91
2016-02-12T06:11:02.468Z,5.97
2016-02-12T06:12:02.502Z,5.89
2016-02-12T06:13:02.520Z,5.98
2016-02-12T06:14:02.539Z,5.89
2016-02-12T06:15:02.542Z,5.94
2016-02-12T06:16:02.559Z,5.89
2016-02-12T06:17:02.578Z,5.89
2016-02-12T06:18:02.582Z,5.93
2016-02-12T06:19:02.615Z,5.99
2016-02-12T06:20:02.634Z,5.87
2016-02-12T06:21:02.636Z,5.84
2016-02-12T06:22:02.640Z,5.93
2016-02-12T06:23:02.657Z,5.87
2016-02-12T06:24:02.676Z,5.99
2016-02-12T06:25:02.710Z,5.91
2016-02-12T06:26:02.697Z,5.89
2016-02-12T06:27:02.732Z,5.91
2016-02-12T06:28:02.735Z,5.94
2016-02-12T06:29:02.752Z,5.91
2016-02-12T06:30:02.771Z,5.93
2016-02-12T06:31:02.790Z,5.84
2016-02-12T06:32:02.808Z,5.91
2016-02-12T06:33:02.810Z,5.9
2016-02-12T06:34:02.844Z,5.89
2016-02-12T06:35:02.849Z,5.9
2016-02-12T06:36:02.868Z,5.9
2016-02-12T06:37:02.886Z,5.83
2016-02-12T06:38:02.904Z,5.86
2016-02-12T06:39:02.923Z,5.83
2016-02-12T06:40:02.941Z,5.91
2016-02-12T06:41:02.929Z,5.89
2016-02-12T06:42:02.947Z,5.91
2016-02-12T06:43:02.965Z,5.89
2016-02-12T06:44:02.986Z,5.94
2016-02-12T06:45:03.005Z,5.86
2016-02-12T06:46:03.023Z,5.9
2016-02-12T06:47:03.042Z,5.89
2016-02-12T06:48:03.045Z,5.89
2016-02-12T06:49:03.062Z,6.02
2016-02-12T06:50:03.081Z,5.89
2016-02-12T06:51:03.084Z,5.87
2016-02-12T06:52:03.103Z,6.02
2016-02-12T06:53:03.137Z,5.99
2016-02-12T06:54:03.140Z,5.98
2016-02-12T06:55:03.158Z,5.93
2016-02-12T06:56:03.161Z,5.97
2016-02-12T06:57:03.180Z,5.9
2016-02-12T06:58:03.213Z,5.93
2016-02-12T06:59:03.216Z,5.89
2016-02-12T07:00:03.249Z,5.89
2016-02-12T07:01:03.254Z,5.94
2016-02-12T07:02:03.256Z,5.9
2016-02-12T07:03:03.274Z,5.84
2016-02-12T07:04:03.294Z,5.87
2016-02-12T07:05:03.312Z,5.9
2016-02-12T07:06:03.331Z,5.87
2016-02-12T07:07:03.350Z,5.93
2016-02-12T07:08:03.367Z,5.9
2016-02-12T07:09:03.371Z,5.89
2016-02-12T07:10:03.373Z,5.87
2016-02-12T07:11:03.393Z,5.9
2016-02-12T07:12:03.414Z,5.89
2016-02-12T07:13:03.416Z,5.87
2016-02-12T07:14:03.452Z,5.94
2016-02-12T07:15:03.485Z,5.97
2016-02-12T07:16:03.518Z,5.9
2016-02-12T07:17:03.350Z,5.87
2016-02-12T07:18:03.508Z,5.84
2016-02-12T07:19:03.527Z,5.9
2016-02-12T07:20:03.529Z,5.89
2016-02-12T07:21:03.548Z,5.89
2016-02-12T07:22:03.598Z,5.93
2016-02-12T07:23:03.584Z,5.93
2016-02-12T07:24:03.603Z,5.84
2016-02-12T07:25:03.606Z,5.82
2016-02-12T07:26:03.639Z,5.94
2016-02-12T07:27:03.643Z,5.84
2016-02-12T07:28:03.660Z,5.87
2016-02-12T07:29:03.679Z,5.79
2016-02-12T07:30:03.697Z,5.94
2016-02-12T07:31:03.715Z,5.99
2016-02-12T07:32:03.718Z,5.93
2016-02-12T07:33:03.752Z,5.9
2016-02-12T07:34:03.756Z,5.9
2016-02-12T07:35:03.773Z,5.97
2016-02-12T07:36:03.791Z,5.89
2016-02-12T07:37:03.794Z,5.93
2016-02-12T07:38:03.813Z,5.91
2016-02-12T07:39:03.831Z,5.9
2016-02-12T07:40:03.835Z,5.97
2016-02-12T07:41:03.853Z,5.91
2016-02-12T07:42:03.871Z,5.89
2016-02-12T07:43:03.905Z,5.93
2016-02-12T07:44:03.908Z,5.91
2016-02-12T07:45:03.927Z,5.9
2016-02-12T07:46:03.945Z,5.91
2016-02-12T07:47:03.949Z,5.99
2016-02-12T07:48:03.967Z,5.98
2016-02-12T07:49:03.985Z,5.94
2016-02-12T07:50:04.005Z,5.99
2016-02-12T07:51:04.022Z,5.97
2016-02-12T07:52:04.024Z,5.97
2016-02-12T07:53:04.043Z,6.05
2016-02-12T07:54:04.061Z,5.94
2016-02-12T07:55:04.065Z,6.14
2016-02-12T07:56:04.083Z,6.05
2016-02-12T07:57:04.117Z,5.97
2016-02-12T07:58:04.136Z,6.07
2016-02-12T07:59:04.138Z,6.01
2016-02-12T08:00:04.157Z,6.01
2016-02-12T08:01:04.160Z,6.05
2016-02-12T08:02:04.177Z,6.02
2016-02-12T08:03:04.196Z,6.09
2016-02-12T08:04:04.341Z,6.11
2016-02-12T08:05:04.422Z,6.17
2016-02-12T08:06:04.362Z,6.12
2016-02-12T08:07:04.365Z,6.11
2016-02-12T08:08:04.274Z,6.05
2016-02-12T08:09:04.292Z,6.09
2016-02-12T08:10:04.295Z,6.12
2016-02-12T08:11:04.314Z,6.12
2016-02-12T08:12:04.332Z,6.17
2016-02-12T08:13:04.369Z,6.22
2016-02-12T08:14:04.372Z,6.17
2016-02-12T08:15:04.485Z,6.24
2016-02-12T08:16:04.394Z,6.28
2016-02-12T08:17:04.413Z,6.33
2016-02-12T08:18:04.430Z,6.22
2016-02-12T08:19:04.761Z,6.3
2016-02-12T08:20:04.467Z,6.27
2016-02-12T08:21:04.471Z,6.33
2016-02-12T08:22:04.490Z,6.36
2016-02-12T08:23:04.509Z,6.36
2016-02-12T08:24:04.515Z,6.35
2016-02-12T08:25:04.548Z,6.3
2016-02-12T08:26:04.566Z,6.3
2016-02-12T08:27:04.568Z,6.35
2016-02-12T08:28:04.634Z,6.46
2016-02-12T08:29:04.433Z,6.46
2016-02-12T08:30:04.603Z,6.45
2016-02-12T08:31:04.778Z,6.48
2016-02-12T08:32:04.656Z,6.51
2016-02-12T08:33:04.673Z,6.51
2016-02-12T08:34:04.677Z,6.51
2016-02-12T08:35:04.679Z,6.54
2016-02-12T08:36:04.714Z,6.56
2016-02-12T08:37:04.717Z,6.59
2016-02-12T08:38:04.765Z,6.52
2016-02-12T08:39:04.768Z,6.57
2016-02-12T08:40:04.678Z,6.6
2016-02-12T08:41:04.778Z,6.67
2016-02-12T08:42:04.813Z,6.69
2016-02-12T08:43:04.831Z,6.62
2016-02-12T08:44:04.835Z,6.74
2016-02-12T08:45:04.838Z,6.64
2016-02-12T08:46:04.857Z,6.7
2016-02-12T08:47:04.874Z,6.64
2016-02-12T08:48:06.519Z,6.6
2016-02-12T08:49:04.912Z,6.64
2016-02-12T08:50:04.917Z,6.62
2016-02-12T08:51:04.950Z,6.67
2016-02-12T08:52:04.953Z,6.67
2016-02-12T08:53:04.971Z,6.7
2016-02-12T08:54:04.989Z,6.72
2016-02-12T08:55:05.008Z,6.69
2016-02-12T08:56:05.011Z,6.7
2016-02-12T08:57:05.028Z,6.69
2016-02-12T08:58:05.064Z,6.67
2016-02-12T08:59:05.067Z,6.78
2016-02-12T09:00:05.084Z,6.7
2016-02-12T09:01:05.103Z,6.69
2016-02-12T09:02:05.106Z,6.74
2016-02-12T09:03:05.123Z,6.72
2016-02-12T09:04:05.001Z,6.7
2016-02-12T09:05:05.181Z,6.69
2016-02-12T09:06:05.184Z,6.78
2016-02-12T09:07:05.186Z,6.78
2016-02-12T09:08:05.205Z,6.78
2016-02-12T09:09:05.223Z,6.78
2016-02-12T09:10:05.257Z,6.75
2016-02-12T09:11:05.244Z,6.75
2016-02-12T09:12:05.266Z,6.75
2016-02-12T09:13:05.314Z,6.69
2016-02-12T09:14:05.317Z,6.75
2016-02-12T09:15:05.320Z,6.84
2016-02-12T09:16:05.324Z,6.82
2016-02-12T09:17:05.389Z,6.81
2016-02-12T09:18:05.360Z,6.84
2016-02-12T09:19:05.395Z,6.82
2016-02-12T09:20:05.397Z,6.82
2016-02-12T09:21:05.401Z,6.89
2016-02-12T09:22:05.420Z,6.89
2016-02-12T09:23:05.437Z,6.89
2016-02-12T09:24:05.458Z,6.92
2016-02-12T09:25:05.492Z,6.95
2016-02-12T09:26:05.494Z,6.96
2016-02-12T09:27:05.498Z,6.95
2016-02-12T09:28:05.532Z,7.05
2016-02-12T09:29:05.531Z,7.03
2016-02-12T09:30:05.538Z,7
2016-02-12T09:31:05.542Z,7.06
2016-02-12T09:32:05.548Z,7.03
2016-02-12T09:33:05.556Z,7.1
2016-02-12T09:34:05.552Z,7.18
2016-02-12T09:35:05.551Z,7.11
2016-02-12T09:36:05.564Z,7.18
2016-02-12T09:37:05.592Z,7.17
2016-02-12T09:38:05.590Z,7.17
2016-02-12T09:39:05.606Z,7.23
2016-02-12T09:40:05.622Z,7.1
2016-02-12T09:41:05.655Z,7.18
2016-02-12T09:42:05.640Z,7.2
2016-02-12T09:43:05.674Z,7.35
2016-02-12T09:44:05.676Z,7.29
2016-02-12T09:45:05.694Z,7.33
2016-02-12T09:46:05.726Z,7.32
2016-02-12T09:47:05.713Z,7.35
2016-02-12T09:48:05.746Z,7.4
2016-02-12T09:49:05.748Z,7.47
2016-02-12T09:50:05.798Z,7.43
2016-02-12T09:51:05.770Z,7.53
2016-02-12T09:52:11.462Z,7.54
2016-02-12T09:53:05.840Z,7.51
2016-02-12T09:54:05.827Z,7.63
2016-02-12T09:55:05.846Z,7.66
2016-02-12T09:56:05.865Z,7.63
2016-02-12T09:57:05.867Z,7.67
2016-02-12T09:58:05.931Z,7.67
2016-02-12T09:59:05.903Z,7.63
2016-02-12T10:00:05.937Z,7.73
2016-02-12T10:01:05.939Z,7.75
2016-02-12T10:02:05.974Z,7.79
2016-02-12T10:03:06.006Z,7.8
2016-02-12T10:04:05.992Z,7.79
2016-02-12T10:05:06.013Z,7.82
2016-02-12T10:06:06.030Z,7.87
2016-02-12T10:07:06.049Z,7.93
2016-02-12T10:08:06.052Z,7.91
2016-02-12T10:09:06.085Z,7.9
2016-02-12T10:10:06.090Z,7.88
2016-02-12T10:11:06.110Z,8.01
2016-02-12T10:12:06.127Z,7.95
2016-02-12T10:13:06.150Z,7.97
2016-02-12T10:14:06.169Z,7.97
2016-02-12T10:15:06.171Z,7.97
2016-02-12T10:16:06.189Z,8.12
2016-02-12T10:17:06.208Z,8.09
2016-02-12T10:18:06.211Z,8.15
2016-02-12T10:19:06.245Z,8.12
2016-02-12T10:20:06.295Z,8.13
2016-02-12T10:21:06.281Z,8.19
2016-02-12T10:22:06.284Z,8.12
2016-02-12T10:23:06.303Z,8.2
2016-02-12T10:24:06.322Z,8.23
2016-02-12T10:25:06.356Z,8.28
2016-02-12T10:26:06.358Z,8.3
2016-02-12T10:27:06.363Z,8.37
2016-02-12T10:28:06.396Z,8.33
2016-02-12T10:29:06.399Z,8.42
2016-02-12T10:30:06.433Z,8.48
2016-02-12T10:31:06.435Z,8.49
2016-02-12T10:32:06.454Z,8.53
2016-02-12T10:33:06.473Z,8.53
2016-02-12T10:34:06.490Z,8.55
2016-02-12T10:35:06.493Z,8.6
2016-02-12T10:36:06.528Z,8.63
2016-02-12T10:37:06.547Z,8.67
2016-02-12T10:38:06.565Z,8.7
2016-02-12T10:39:06.570Z,8.71
2016-02-12T10:40:06.587Z,8.67
2016-02-12T10:41:06.590Z,8.69
2016-02-12T10:42:06.624Z,8.67
2016-02-12T10:43:06.643Z,8.84
2016-02-12T10:44:06.666Z,8.79
2016-02-12T10:45:06.669Z,8.67
2016-02-12T10:46:06.686Z,8.82
2016-02-12T10:47:06.694Z,8.78
2016-02-12T10:48:06.714Z,8.85
2016-02-12T10:49:06.731Z,8.79
2016-02-12T10:50:06.751Z,8.81
2016-02-12T10:51:06.769Z,8.84
2016-02-12T10:52:06.787Z,8.82
2016-02-12T10:53:06.806Z,8.97
2016-02-12T10:54:06.823Z,9.03
2016-02-12T10:55:06.826Z,8.88
2016-02-12T10:56:06.861Z,8.97
2016-02-12T10:57:06.878Z,8.89
2016-02-12T10:58:06.881Z,8.94
2016-02-12T10:59:06.900Z,8.87
2016-02-12T11:00:06.933Z,8.94
2016-02-12T11:01:06.936Z,8.99
2016-02-12T11:02:06.970Z,8.97
2016-02-12T11:03:06.988Z,8.95
2016-02-12T11:04:06.992Z,9
2016-02-12T11:05:07.011Z,9.06
2016-02-12T11:06:07.169Z,9.04
2016-02-12T11:07:07.047Z,9.04
2016-02-12T11:08:07.080Z,9.14
2016-02-12T11:09:07.068Z,9.16
2016-02-12T11:10:07.102Z,9.21
2016-02-12T11:11:07.105Z,9.11
2016-02-12T11:12:07.138Z,9.21
2016-02-12T11:13:07.143Z,9.26
2016-02-12T11:14:07.164Z,9.28
2016-02-12T11:15:07.181Z,9.25
2016-02-12T11:16:07.201Z,9.36
2016-02-12T11:17:07.218Z,9.36
2016-02-12T11:18:06.500Z,9.37
2016-02-12T11:19:07.253Z,9.46
2016-02-12T11:20:07.270Z,9.48
2016-02-12T11:21:07.274Z,9.51
2016-02-12T11:22:07.293Z,9.51
2016-02-12T11:23:07.312Z,9.51
2016-02-12T11:24:07.346Z,9.56
2016-02-12T11:25:07.207Z,9.66
2016-02-12T11:26:07.366Z,9.72
2016-02-12T11:27:07.385Z,9.72
2016-02-12T11:28:07.403Z,9.74
2016-02-12T11:29:29.491Z,9.77
2016-02-12T11:30:07.444Z,9.68
2016-02-12T11:31:07.462Z,9.64
2016-02-12T11:32:07.481Z,9.76
2016-02-12T11:33:07.500Z,9.76
2016-02-12T11:34:07.517Z,9.8
2016-02-12T11:35:07.520Z,9.82
2016-02-12T11:36:07.539Z,9.84
2016-02-12T11:37:07.557Z,9.83
2016-02-12T11:38:07.591Z,9.91
2016-02-12T11:39:07.597Z,9.98
2016-02-12T11:40:07.614Z,9.94
2016-02-12T11:41:07.633Z,9.89
2016-02-12T11:42:07.652Z,10.01
2016-02-12T11:43:07.670Z,9.94
2016-02-12T11:44:07.536Z,10.09
2016-02-12T11:45:07.710Z,10.1
2016-02-12T11:46:07.729Z,10.16
2016-02-12T11:47:07.732Z,10.12
2016-02-12T11:48:07.610Z,10.12
2016-02-12T11:49:07.785Z,10.13
2016-02-12T11:50:07.787Z,10.1
2016-02-12T11:51:07.822Z,10.2
2016-02-12T11:52:07.841Z,10.15
2016-02-12T11:53:07.858Z,10.28
2016-02-12T11:54:07.861Z,10.3
2016-02-12T11:55:07.989Z,10.25
2016-02-12T11:56:07.992Z,10.25
2016-02-12T11:57:08.090Z,10.22
2016-02-12T11:58:08.437Z,10.26
2016-02-12T11:59:07.957Z,10.33
2016-02-12T12:00:07.225Z,10.2
2016-02-12T12:01:07.994Z,10.35
2016-02-12T12:02:07.997Z,10.34
2016-02-12T12:03:08.031Z,10.31
2016-02-12T12:04:08.048Z,10.4
2016-02-12T12:05:08.068Z,10.37
2016-02-12T12:06:08.087Z,10.44
2016-02-12T12:07:08.089Z,10.4
2016-02-12T12:08:08.436Z,10.37
2016-02-12T12:09:08.143Z,10.49
2016-02-12T12:10:08.161Z,10.56
2016-02-12T12:11:08.194Z,10.57
2016-02-12T12:12:08.213Z,10.57
2016-02-12T12:13:08.215Z,10.57
2016-02-12T12:14:08.234Z,10.56
2016-02-12T12:15:08.252Z,10.56
2016-02-12T12:16:08.272Z,10.6
2016-02-12T12:17:08.292Z,10.53
2016-02-12T12:18:08.309Z,10.59
2016-02-12T12:19:08.328Z,10.56
2016-02-12T12:20:08.346Z,10.53
2016-02-12T12:21:08.349Z,10.57
2016-02-12T12:22:08.383Z,10.67
2016-02-12T12:23:08.401Z,10.61
2016-02-12T12:24:08.420Z,10.72
2016-02-12T12:25:08.423Z,10.68
2016-02-12T12:26:08.457Z,10.76
2016-02-12T12:27:08.475Z,10.78
2016-02-12T12:28:08.493Z,10.76
2016-02-12T12:29:08.512Z,10.76
2016-02-12T12:30:08.530Z,10.74
2016-02-12T12:31:08.549Z,10.75
2016-02-12T12:32:08.552Z,10.79
2016-02-12T12:33:08.570Z,10.76
2016-02-12T12:34:08.589Z,10.75
2016-02-12T12:35:08.607Z,10.76
2016-02-12T12:36:08.626Z,10.78
2016-02-12T12:37:08.660Z,10.78
2016-02-12T12:38:08.679Z,10.84
2016-02-12T12:39:08.696Z,10.82
2016-02-12T12:40:08.715Z,10.92
2016-02-12T12:41:08.732Z,10.89
2016-02-12T12:42:08.756Z,10.97
2016-02-12T12:43:08.618Z,10.99
2016-02-12T12:44:08.793Z,10.92
2016-02-12T12:45:08.811Z,10.86
2016-02-12T12:46:08.815Z,10.93
2016-02-12T12:47:08.849Z,10.9
2016-02-12T12:48:08.867Z,10.89
2016-02-12T12:49:08.885Z,10.86
2016-02-12T12:50:08.920Z,10.76
2016-02-12T12:51:08.923Z,10.79
2016-02-12T12:52:08.957Z,10.78
2016-02-12T12:53:08.960Z,10.71
2016-02-12T12:54:08.978Z,10.76
2016-02-12T12:55:08.996Z,10.81
2016-02-12T12:56:09.015Z,10.81
2016-02-12T12:57:09.033Z,10.82
2016-02-12T12:58:09.051Z,10.74
2016-02-12T12:59:09.070Z,10.84
2016-02-12T13:00:09.106Z,10.84
2016-02-12T13:01:09.108Z,10.86
2016-02-12T13:02:09.126Z,10.82
2016-02-12T13:03:09.145Z,10.87
2016-02-12T13:04:09.164Z,10.87
2016-02-12T13:05:09.182Z,10.87
2016-02-12T13:06:09.216Z,10.89
2016-02-12T13:07:09.234Z,10.94
2016-02-12T13:08:09.253Z,10.86
2016-02-12T13:09:09.272Z,10.92
2016-02-12T13:10:09.275Z,10.94
2016-02-12T13:11:09.294Z,10.93
2016-02-12T13:12:09.313Z,10.92
2016-02-12T13:13:09.347Z,10.97
2016-02-12T13:14:09.380Z,10.97
2016-02-12T13:15:09.384Z,10.99
2016-02-12T13:16:09.403Z,10.97
2016-02-12T13:17:09.405Z,11.02
2016-02-12T13:18:09.439Z,11.04
2016-02-12T13:19:09.458Z,11.02